createdAt,value
2017-07-22T00:00:45.234Z,0
2017-07-22T00:01:46.605Z,0
2017-07-22T00:02:47.827Z,0
2017-07-22T00:03:49.066Z,0
2017-07-22T00:04:50.303Z,0
2017-07-22T00:05:51.540Z,0
2017-07-22T00:06:52.791Z,0
2017-07-22T00:07:54.024Z,0
2017-07-22T00:08:55.247Z,0
2017-07-22T00:09:56.490Z,0
2017-07-22T00:10:57.749Z,0
2017-07-22T00:11:58.994Z,0
2017-07-22T00:13:00.235Z,0
2017-07-22T00:14:01.466Z,0
2017-07-22T00:15:02.731Z,0
2017-07-22T00:16:03.982Z,0
2017-07-22T00:17:05.458Z,0
2017-07-22T00:18:06.684Z,0
2017-07-22T00:19:07.926Z,0
2017-07-22T00:20:09.249Z,0
2017-07-22T00:21:10.517Z,0
2017-07-22T00:22:11.763Z,0
2017-07-22T00:23:13.005Z,0
2017-07-22T00:24:14.261Z,0
2017-07-22T00:25:15.500Z,0
2017-07-22T00:26:16.815Z,0
2017-07-22T00:27:18.061Z,0
2017-07-22T00:28:19.315Z,0
2017-07-22T00:29:20.566Z,0
2017-07-22T00:30:21.809Z,0
2017-07-22T00:31:23.080Z,0
2017-07-22T00:32:24.321Z,0
2017-07-22T00:33:25.578Z,0
2017-07-22T00:34:26.840Z,0
2017-07-22T00:35:28.181Z,0
2017-07-22T00:36:29.397Z,0
2017-07-22T00:37:30.650Z,0
2017-07-22T00:38:31.891Z,0
2017-07-22T00:39:33.145Z,0
2017-07-22T00:40:34.398Z,0
2017-07-22T00:41:35.637Z,0
2017-07-22T00:42:36.910Z,0
2017-07-22T00:43:38.150Z,0
2017-07-22T00:44:39.470Z,0
2017-07-22T00:45:40.704Z,0
2017-07-22T00:46:42.073Z,0
2017-07-22T00:47:43.382Z,0
2017-07-22T00:48:44.656Z,0
2017-07-22T00:49:45.900Z,0
2017-07-22T00:50:47.139Z,0
2017-07-22T00:51:48.377Z,0
2017-07-22T00:52:49.615Z,0
2017-07-22T00:53:50.857Z,0
2017-07-22T00:54:52.103Z,0
2017-07-22T00:55:53.341Z,0
2017-07-22T00:56:54.580Z,0
2017-07-22T00:57:55.830Z,0
2017-07-22T00:58:57.056Z,0
2017-07-22T00:59:58.409Z,0
2017-07-22T01:00:59.758Z,0
2017-07-22T01:02:01.207Z,0
2017-07-22T01:03:02.445Z,0
2017-07-22T01:04:03.688Z,0
2017-07-22T01:05:04.933Z,0
2017-07-22T01:06:06.221Z,0
2017-07-22T01:07:07.450Z,0
2017-07-22T01:08:08.701Z,0
2017-07-22T01:09:09.940Z,0
2017-07-22T01:10:11.187Z,0
2017-07-22T01:11:12.449Z,0
2017-07-22T01:12:13.721Z,0
2017-07-22T01:13:14.956Z,0
2017-07-22T01:14:16.183Z,0
2017-07-22T01:15:17.435Z,0
2017-07-22T01:16:18.671Z,0
2017-07-22T01:17:19.910Z,0
2017-07-22T01:18:21.147Z,0
2017-07-22T01:19:22.390Z,0
2017-07-22T01:20:23.647Z,0
2017-07-22T01:21:24.916Z,0
2017-07-22T01:22:26.155Z,0
2017-07-22T01:23:27.402Z,0
2017-07-22T01:24:28.752Z,0
2017-07-22T01:25:29.902Z,0
2017-07-22T01:26:31.260Z,0
2017-07-22T01:27:32.475Z,0
2017-07-22T01:28:33.723Z,0
2017-07-22T01:29:34.973Z,0
2017-07-22T01:30:36.200Z,0
2017-07-22T01:31:37.507Z,0
2017-07-22T01:32:38.792Z,0
2017-07-22T01:33:40.026Z,0
2017-07-22T01:34:41.266Z,0
2017-07-22T01:35:42.504Z,0
2017-07-22T01:36:43.748Z,0
2017-07-22T01:37:45.006Z,0
2017-07-22T01:38:46.235Z,0
2017-07-22T01:39:47.537Z,0
2017-07-22T01:40:48.860Z,0
2017-07-22T01:41:50.099Z,0
2017-07-22T01:42:51.338Z,0
2017-07-22T01:43:52.655Z,0
2017-07-22T01:44:53.894Z,0
2017-07-22T01:45:55.133Z,0
2017-07-22T01:46:56.372Z,0
2017-07-22T01:47:57.663Z,0
2017-07-22T01:48:58.931Z,0
2017-07-22T01:50:00.159Z,0
2017-07-22T01:51:01.450Z,0
2017-07-22T01:52:02.681Z,0
2017-07-22T01:53:03.985Z,0
2017-07-22T01:54:05.205Z,0
2017-07-22T01:55:06.450Z,0
2017-07-22T01:56:07.696Z,0
2017-07-22T01:57:08.942Z,0
2017-07-22T01:58:10.193Z,0
2017-07-22T01:59:11.433Z,0
2017-07-22T02:00:12.713Z,0
2017-07-22T02:01:13.951Z,0
2017-07-22T02:02:15.208Z,0
2017-07-22T02:03:16.620Z,0
2017-07-22T02:04:17.814Z,0
2017-07-22T02:05:19.055Z,0
2017-07-22T02:06:20.294Z,0
2017-07-22T02:07:21.533Z,0
2017-07-22T02:08:22.799Z,0
2017-07-22T02:09:24.012Z,0
2017-07-22T02:10:25.266Z,0
2017-07-22T02:11:26.507Z,0
2017-07-22T02:12:27.820Z,0
2017-07-22T02:13:29.067Z,0
2017-07-22T02:14:30.308Z,0
2017-07-22T02:15:31.545Z,0
2017-07-22T02:16:32.792Z,0
2017-07-22T02:17:34.039Z,0
2017-07-22T02:18:35.282Z,0
2017-07-22T02:19:36.525Z,0
2017-07-22T02:20:37.760Z,0
2017-07-22T02:21:39.069Z,0
2017-07-22T02:22:40.325Z,0
2017-07-22T02:23:41.595Z,0
2017-07-22T02:24:42.846Z,0
2017-07-22T02:25:44.096Z,0
2017-07-22T02:26:45.394Z,0
2017-07-22T02:27:46.635Z,0
2017-07-22T02:28:47.902Z,0
2017-07-22T02:29:49.150Z,0
2017-07-22T02:30:50.502Z,0
2017-07-22T02:31:51.797Z,0
2017-07-22T02:32:53.037Z,0
2017-07-22T02:33:54.274Z,0
2017-07-22T02:34:55.559Z,0
2017-07-22T02:35:56.926Z,0
2017-07-22T02:36:58.167Z,0
2017-07-22T02:37:59.455Z,0
2017-07-22T02:39:00.683Z,0
2017-07-22T02:40:01.911Z,0
2017-07-22T02:41:03.243Z,0
2017-07-22T02:42:04.474Z,0
2017-07-22T02:43:05.708Z,0
2017-07-22T02:44:06.948Z,0
2017-07-22T02:45:08.193Z,0
2017-07-22T02:46:09.418Z,0
2017-07-22T02:47:10.813Z,0
2017-07-22T02:48:12.039Z,0
2017-07-22T02:49:13.285Z,0
2017-07-22T02:50:14.522Z,0
2017-07-22T02:51:15.759Z,0
2017-07-22T02:52:17.011Z,0
2017-07-22T02:53:18.263Z,0
2017-07-22T02:54:19.608Z,0
2017-07-22T02:55:20.849Z,0
2017-07-22T02:56:22.078Z,0
2017-07-22T02:57:23.587Z,0
2017-07-22T02:58:24.883Z,0
2017-07-22T02:59:26.084Z,0
2017-07-22T03:00:27.317Z,0
2017-07-22T03:01:28.679Z,0
2017-07-22T03:02:29.900Z,0
2017-07-22T03:03:31.179Z,0
2017-07-22T03:04:32.422Z,0
2017-07-22T03:05:33.669Z,0
2017-07-22T03:06:34.976Z,0
2017-07-22T03:07:36.217Z,0
2017-07-22T03:08:37.458Z,0
2017-07-22T03:09:38.696Z,0
2017-07-22T03:10:39.931Z,0
2017-07-22T03:11:41.176Z,0
2017-07-22T03:12:42.524Z,0
2017-07-22T03:13:43.844Z,0
2017-07-22T03:14:45.098Z,0
2017-07-22T03:15:46.336Z,0
2017-07-22T03:16:47.568Z,0
2017-07-22T03:17:48.818Z,0
2017-07-22T03:18:50.049Z,0
2017-07-22T03:19:51.292Z,0
2017-07-22T03:20:52.541Z,0
2017-07-22T03:21:53.792Z,0
2017-07-22T03:22:55.031Z,0
2017-07-22T03:23:56.260Z,0
2017-07-22T03:24:57.497Z,0
2017-07-22T03:25:58.772Z,0
2017-07-22T03:27:00.019Z,0
2017-07-22T03:28:01.326Z,0
2017-07-22T03:29:02.565Z,0
2017-07-22T03:30:03.813Z,0
2017-07-22T03:31:05.061Z,0
2017-07-22T03:32:06.337Z,0
2017-07-22T03:33:07.608Z,0
2017-07-22T03:34:08.911Z,0
2017-07-22T03:35:10.151Z,0
2017-07-22T03:36:11.388Z,0
2017-07-22T03:37:12.658Z,0
2017-07-22T03:38:13.876Z,0
2017-07-22T03:39:15.166Z,0
2017-07-22T03:40:16.416Z,0
2017-07-22T03:41:17.763Z,0
2017-07-22T03:42:19.093Z,0
2017-07-22T03:43:20.319Z,0
2017-07-22T03:44:21.559Z,0
2017-07-22T03:45:22.810Z,0
2017-07-22T03:46:24.063Z,0
2017-07-22T03:47:25.302Z,0
2017-07-22T03:48:26.544Z,0
2017-07-22T03:49:27.776Z,0
2017-07-22T03:50:29.038Z,0
2017-07-22T03:51:30.282Z,0
2017-07-22T03:52:31.627Z,0
2017-07-22T03:53:32.960Z,0
2017-07-22T03:54:34.189Z,0
2017-07-22T03:55:35.444Z,0
2017-07-22T03:56:36.767Z,0
2017-07-22T03:57:37.938Z,0
2017-07-22T03:58:39.193Z,0
2017-07-22T03:59:40.436Z,0
2017-07-22T04:00:41.762Z,0
2017-07-22T04:01:43.153Z,0
2017-07-22T04:02:44.307Z,0
2017-07-22T04:03:45.582Z,0
2017-07-22T04:04:46.861Z,0
2017-07-22T04:05:48.103Z,0
2017-07-22T04:06:49.451Z,0
2017-07-22T04:07:50.708Z,0
2017-07-22T04:08:51.949Z,0
2017-07-22T04:09:53.188Z,0
2017-07-22T04:10:54.424Z,0
2017-07-22T04:11:55.663Z,0
2017-07-22T04:12:56.898Z,0
2017-07-22T04:13:58.154Z,0
2017-07-22T04:14:59.374Z,0
2017-07-22T04:16:00.635Z,5
2017-07-22T04:17:01.854Z,5
2017-07-22T04:18:03.108Z,5
2017-07-22T04:19:04.358Z,5
2017-07-22T04:20:05.590Z,5
2017-07-22T04:21:06.828Z,5
2017-07-22T04:22:08.084Z,5
2017-07-22T04:23:09.388Z,5
2017-07-22T04:24:10.647Z,5
2017-07-22T04:25:11.874Z,5
2017-07-22T04:26:13.121Z,5
2017-07-22T04:27:14.375Z,5
2017-07-22T04:28:15.611Z,5
2017-07-22T04:29:16.868Z,5
2017-07-22T04:30:18.094Z,5
2017-07-22T04:31:19.340Z,5
2017-07-22T04:32:20.601Z,10
2017-07-22T04:33:21.836Z,10
2017-07-22T04:34:23.085Z,10
2017-07-22T04:35:24.314Z,10
2017-07-22T04:36:25.672Z,10
2017-07-22T04:37:26.915Z,10
2017-07-22T04:38:28.163Z,10
2017-07-22T04:39:29.469Z,10
2017-07-22T04:40:30.709Z,10
2017-07-22T04:41:31.969Z,10
2017-07-22T04:42:33.327Z,10
2017-07-22T04:43:34.564Z,10
2017-07-22T04:44:35.823Z,10
2017-07-22T04:45:37.077Z,10
2017-07-22T04:46:38.295Z,10
2017-07-22T04:47:39.532Z,10
2017-07-22T04:48:40.876Z,10
2017-07-22T04:49:42.129Z,10
2017-07-22T04:50:43.378Z,15
2017-07-22T04:51:44.619Z,15
2017-07-22T04:52:45.846Z,15
2017-07-22T04:53:47.140Z,15
2017-07-22T04:54:48.371Z,15
2017-07-22T04:55:49.610Z,15
2017-07-22T04:56:50.941Z,15
2017-07-22T04:57:52.182Z,15
2017-07-22T04:58:53.451Z,20
2017-07-22T04:59:54.695Z,20
2017-07-22T05:00:55.933Z,20
2017-07-22T05:01:57.239Z,20
2017-07-22T05:02:58.490Z,25
2017-07-22T05:03:59.772Z,25
2017-07-22T05:05:01.008Z,25
2017-07-22T05:06:02.246Z,25
2017-07-22T05:07:03.481Z,25
2017-07-22T05:08:04.725Z,30
2017-07-22T05:09:05.964Z,30
2017-07-22T05:10:07.226Z,30
2017-07-22T05:11:08.460Z,30
2017-07-22T05:12:09.703Z,30
2017-07-22T05:13:10.946Z,30
2017-07-22T05:14:12.184Z,30
2017-07-22T05:15:13.430Z,30
2017-07-22T05:16:14.725Z,30
2017-07-22T05:17:16.062Z,30
2017-07-22T05:18:17.313Z,30
2017-07-22T05:19:18.544Z,30
2017-07-22T05:20:19.779Z,30
2017-07-22T05:21:21.034Z,30
2017-07-22T05:22:22.313Z,30
2017-07-22T05:23:23.556Z,35
2017-07-22T05:24:24.795Z,35
2017-07-22T05:25:26.026Z,40
2017-07-22T05:26:27.319Z,45
2017-07-22T05:27:28.651Z,50
2017-07-22T05:28:29.803Z,60
2017-07-22T05:29:31.106Z,65
2017-07-22T05:30:32.347Z,75
2017-07-22T05:31:33.611Z,80
2017-07-22T05:32:34.829Z,80
2017-07-22T05:33:36.080Z,90
2017-07-22T05:34:37.314Z,85
2017-07-22T05:35:38.581Z,85
2017-07-22T05:36:39.948Z,80
2017-07-22T05:37:41.192Z,75
2017-07-22T05:38:42.428Z,75
2017-07-22T05:39:43.667Z,75
2017-07-22T05:40:44.884Z,75
2017-07-22T05:41:46.115Z,80
2017-07-22T05:42:47.354Z,85
2017-07-22T05:43:48.588Z,90
2017-07-22T05:44:49.822Z,100
2017-07-22T05:45:52.511Z,110
2017-07-22T05:46:53.894Z,120
2017-07-22T05:47:55.124Z,130
2017-07-22T05:48:56.390Z,135
2017-07-22T05:49:57.625Z,140
2017-07-22T05:50:58.926Z,150
2017-07-22T05:52:00.165Z,155
2017-07-22T05:53:01.403Z,165
2017-07-22T05:54:02.679Z,170
2017-07-22T05:55:03.922Z,170
2017-07-22T05:56:05.129Z,170
2017-07-22T05:57:06.366Z,175
2017-07-22T05:58:07.619Z,180
2017-07-22T05:59:08.860Z,170
2017-07-22T06:00:10.099Z,165
2017-07-22T06:01:11.344Z,160
2017-07-22T06:02:12.611Z,150
2017-07-22T06:03:13.852Z,145
2017-07-22T06:04:15.089Z,145
2017-07-22T06:05:16.334Z,140
2017-07-22T06:06:17.573Z,140
2017-07-22T06:07:18.827Z,145
2017-07-22T06:08:20.045Z,150
2017-07-22T06:09:21.364Z,155
2017-07-22T06:10:22.721Z,155
2017-07-22T06:11:23.970Z,150
2017-07-22T06:12:25.235Z,145
2017-07-22T06:13:26.466Z,150
2017-07-22T06:14:27.814Z,160
2017-07-22T06:15:29.050Z,170
2017-07-22T06:16:30.297Z,175
2017-07-22T06:17:31.581Z,180
2017-07-22T06:18:32.814Z,190
2017-07-22T06:19:34.065Z,200
2017-07-22T06:20:35.302Z,210
2017-07-22T06:21:36.533Z,225
2017-07-22T06:22:37.836Z,235
2017-07-22T06:23:39.088Z,245
2017-07-22T06:24:40.326Z,255
2017-07-22T06:25:41.561Z,275
2017-07-22T06:26:42.818Z,290
2017-07-22T06:27:44.047Z,300
2017-07-22T06:28:45.370Z,310
2017-07-22T06:29:46.621Z,330
2017-07-22T06:30:47.858Z,350
2017-07-22T06:31:49.119Z,375
2017-07-22T06:32:50.346Z,390
2017-07-22T06:33:51.656Z,410
2017-07-22T06:34:52.894Z,445
2017-07-22T06:35:54.135Z,490
2017-07-22T06:36:55.378Z,525
2017-07-22T06:37:56.611Z,555
2017-07-22T06:38:57.846Z,655
2017-07-22T06:39:59.096Z,785
2017-07-22T06:41:00.348Z,1125
2017-07-22T06:42:01.656Z,925
2017-07-22T06:43:02.904Z,760
2017-07-22T06:44:04.152Z,720
2017-07-22T06:45:05.378Z,1600
2017-07-22T06:46:06.616Z,1385
2017-07-22T06:47:07.853Z,1640
2017-07-22T06:48:09.118Z,1770
2017-07-22T06:49:10.347Z,1790
2017-07-22T06:50:11.626Z,1780
2017-07-22T06:51:12.876Z,1700
2017-07-22T06:52:14.117Z,1715
2017-07-22T06:53:15.425Z,1745
2017-07-22T06:54:16.703Z,1775
2017-07-22T06:55:18.063Z,1780
2017-07-22T06:56:19.342Z,1795
2017-07-22T06:57:20.606Z,1820
2017-07-22T06:58:21.924Z,1840
2017-07-22T06:59:23.231Z,1930
2017-07-22T07:00:24.502Z,1910
2017-07-22T07:01:25.801Z,1890
2017-07-22T07:02:27.060Z,1950
2017-07-22T07:03:28.323Z,1985
2017-07-22T07:04:29.565Z,2055
2017-07-22T07:05:30.863Z,2115
2017-07-22T07:06:32.107Z,2135
2017-07-22T07:07:33.357Z,2080
2017-07-22T07:08:34.592Z,2005
2017-07-22T07:09:35.843Z,2030
2017-07-22T07:10:37.142Z,2045
2017-07-22T07:11:38.403Z,2045
2017-07-22T07:12:39.678Z,2045
2017-07-22T07:13:40.943Z,2025
2017-07-22T07:14:42.197Z,2055
2017-07-22T07:15:43.483Z,1965
2017-07-22T07:16:44.732Z,1935
2017-07-22T07:17:46.005Z,1955
2017-07-22T07:18:47.268Z,1950
2017-07-22T07:19:48.525Z,1905
2017-07-22T07:20:49.773Z,1825
2017-07-22T07:21:51.007Z,1840
2017-07-22T07:22:52.260Z,1820
2017-07-22T07:23:53.546Z,1775
2017-07-22T07:24:54.775Z,1770
2017-07-22T07:25:56.024Z,1810
2017-07-22T07:26:57.330Z,1850
2017-07-22T07:27:58.587Z,1940
2017-07-22T07:28:59.840Z,2055
2017-07-22T07:30:01.090Z,2105
2017-07-22T07:31:02.346Z,2215
2017-07-22T07:32:03.589Z,2310
2017-07-22T07:33:04.937Z,2295
2017-07-22T07:34:06.185Z,2280
2017-07-22T07:35:07.436Z,2330
2017-07-22T07:36:08.681Z,2505
2017-07-22T07:37:09.926Z,2535
2017-07-22T07:38:11.170Z,2620
2017-07-22T07:39:12.420Z,2585
2017-07-22T07:40:13.674Z,2540
2017-07-22T07:41:14.919Z,2580
2017-07-22T07:42:16.170Z,2650
2017-07-22T07:43:17.442Z,2565
2017-07-22T07:44:18.684Z,2175
2017-07-22T07:45:19.935Z,2485
2017-07-22T07:46:21.244Z,2550
2017-07-22T07:47:22.493Z,2530
2017-07-22T07:48:23.738Z,2450
2017-07-22T07:49:25.004Z,2535
2017-07-22T07:50:26.250Z,2605
2017-07-22T07:51:27.501Z,2625
2017-07-22T07:52:28.749Z,2535
2017-07-22T07:53:30.016Z,2540
2017-07-22T07:54:31.371Z,2585
2017-07-22T07:55:32.525Z,2620
2017-07-22T07:56:33.780Z,2545
2017-07-22T07:57:35.123Z,2500
2017-07-22T07:58:36.382Z,2495
2017-07-22T07:59:37.639Z,2580
2017-07-22T08:00:38.894Z,2580
2017-07-22T08:01:40.149Z,2620
2017-07-22T08:02:41.406Z,2645
2017-07-22T08:03:42.665Z,2675
2017-07-22T08:04:43.931Z,2710
2017-07-22T08:05:45.254Z,2645
2017-07-22T08:06:46.545Z,2575
2017-07-22T08:07:47.785Z,2665
2017-07-22T08:08:49.093Z,2750
2017-07-22T08:09:50.350Z,2800
2017-07-22T08:10:51.657Z,2880
2017-07-22T08:11:52.906Z,2795
2017-07-22T08:12:54.164Z,2720
2017-07-22T08:13:55.421Z,2735
2017-07-22T08:14:56.715Z,2680
2017-07-22T08:15:58.020Z,2755
2017-07-22T08:16:59.380Z,2815
2017-07-22T08:18:00.644Z,2800
2017-07-22T08:19:01.897Z,2775
2017-07-22T08:20:03.180Z,2890
2017-07-22T08:21:04.521Z,2905
2017-07-22T08:22:05.803Z,2875
2017-07-22T08:23:07.089Z,2870
2017-07-22T08:24:08.335Z,1985
2017-07-22T08:25:09.580Z,2510
2017-07-22T08:26:10.943Z,1865
2017-07-22T08:27:12.191Z,3010
2017-07-22T08:28:13.448Z,3095
2017-07-22T08:29:14.710Z,2010
2017-07-22T08:30:15.958Z,2995
2017-07-22T08:31:17.241Z,2930
2017-07-22T08:32:18.505Z,3080
2017-07-22T08:33:19.765Z,3245
2017-07-22T08:34:21.176Z,3130
2017-07-22T08:35:22.424Z,2970
2017-07-22T08:36:23.672Z,2960
2017-07-22T08:37:24.951Z,2945
2017-07-22T08:38:26.190Z,2965
2017-07-22T08:39:27.449Z,3060
2017-07-22T08:40:28.741Z,3125
2017-07-22T08:41:29.998Z,3070
2017-07-22T08:42:31.328Z,3070
2017-07-22T08:43:32.577Z,3040
2017-07-22T08:44:33.829Z,3080
2017-07-22T08:45:35.104Z,2845
2017-07-22T08:46:36.363Z,3150
2017-07-22T08:47:37.619Z,3220
2017-07-22T08:48:38.875Z,3110
2017-07-22T08:49:40.130Z,3175
2017-07-22T08:50:41.418Z,2985
2017-07-22T08:51:42.678Z,3110
2017-07-22T08:52:43.962Z,3165
2017-07-22T08:53:45.225Z,3180
2017-07-22T08:54:46.471Z,3165
2017-07-22T08:55:47.753Z,3090
2017-07-22T08:56:49.032Z,2985
2017-07-22T08:57:50.304Z,3175
2017-07-22T08:58:51.557Z,3245
2017-07-22T08:59:52.823Z,3300
2017-07-22T09:00:54.053Z,3225
2017-07-22T09:01:55.336Z,1870
2017-07-22T09:02:56.589Z,3200
2017-07-22T09:03:57.850Z,3310
2017-07-22T09:04:59.180Z,3310
2017-07-22T09:06:00.434Z,3245
2017-07-22T09:07:01.690Z,3335
2017-07-22T09:08:02.928Z,3265
2017-07-22T09:09:04.308Z,3310
2017-07-22T09:10:05.570Z,3440
2017-07-22T09:11:06.841Z,3415
2017-07-22T09:12:08.078Z,2350
2017-07-22T09:13:09.323Z,3340
2017-07-22T09:14:10.578Z,3470
2017-07-22T09:15:11.861Z,3145
2017-07-22T09:16:13.181Z,3530
2017-07-22T09:17:14.439Z,3645
2017-07-22T09:18:15.731Z,3540
2017-07-22T09:19:16.990Z,3515
2017-07-22T09:20:18.248Z,3525
2017-07-22T09:21:19.557Z,3440
2017-07-22T09:22:20.860Z,3605
2017-07-22T09:23:22.105Z,3585
2017-07-22T09:24:23.424Z,3520
2017-07-22T09:25:24.671Z,3580
2017-07-22T09:26:25.920Z,3525
2017-07-22T09:27:27.262Z,3685
2017-07-22T09:28:28.511Z,3635
2017-07-22T09:29:29.766Z,3620
2017-07-22T09:30:31.028Z,3755
2017-07-22T09:31:32.276Z,3070
2017-07-22T09:32:33.545Z,3750
2017-07-22T09:33:34.890Z,3875
2017-07-22T09:34:36.146Z,3170
2017-07-22T09:35:37.422Z,1865
2017-07-22T09:36:38.681Z,4090
2017-07-22T09:37:39.934Z,2460
2017-07-22T09:38:41.212Z,3515
2017-07-22T09:39:42.468Z,3920
2017-07-22T09:40:43.737Z,3565
2017-07-22T09:41:45.098Z,4085
2017-07-22T09:42:46.343Z,1825
2017-07-22T09:43:47.596Z,4130
2017-07-22T09:44:48.890Z,2490
2017-07-22T09:45:50.110Z,4395
2017-07-22T09:46:51.426Z,2040
2017-07-22T09:47:52.682Z,4070
2017-07-22T09:48:53.931Z,3485
2017-07-22T09:49:55.217Z,4170
2017-07-22T09:50:56.454Z,3805
2017-07-22T09:51:57.728Z,3825
2017-07-22T09:52:58.994Z,3855
2017-07-22T09:54:00.256Z,3890
2017-07-22T09:55:01.509Z,3990
2017-07-22T09:56:02.767Z,3975
2017-07-22T09:57:04.029Z,3935
2017-07-22T09:58:05.325Z,4090
2017-07-22T09:59:06.585Z,3920
2017-07-22T10:00:07.842Z,3955
2017-07-22T10:01:09.103Z,4135
2017-07-22T10:02:10.362Z,4080
2017-07-22T10:03:11.629Z,3950
2017-07-22T10:04:12.969Z,3920
2017-07-22T10:05:14.217Z,3980
2017-07-22T10:06:15.529Z,4010
2017-07-22T10:07:16.786Z,4025
2017-07-22T10:08:18.049Z,3980
2017-07-22T10:09:19.312Z,3880
2017-07-22T10:10:20.597Z,4105
2017-07-22T10:11:21.884Z,4210
2017-07-22T10:12:23.169Z,4125
2017-07-22T10:13:24.427Z,4010
2017-07-22T10:14:25.679Z,3970
2017-07-22T10:15:26.952Z,3905
2017-07-22T10:16:28.199Z,4015
2017-07-22T10:17:29.475Z,3710
2017-07-22T10:18:30.714Z,3335
2017-07-22T10:19:31.966Z,3180
2017-07-22T10:20:33.221Z,3335
2017-07-22T10:21:34.589Z,3210
2017-07-22T10:22:35.832Z,3270
2017-07-22T10:23:37.092Z,3330
2017-07-22T10:24:38.351Z,3245
2017-07-22T10:25:39.610Z,3170
2017-07-22T10:26:40.867Z,3155
2017-07-22T10:27:42.119Z,3115
2017-07-22T10:28:43.463Z,3100
2017-07-22T10:29:44.746Z,2835
2017-07-22T10:30:45.992Z,2910
2017-07-22T10:31:47.402Z,3055
2017-07-22T10:32:48.659Z,3050
2017-07-22T10:33:49.908Z,3110
2017-07-22T10:34:51.173Z,3140
2017-07-22T10:35:52.454Z,3030
2017-07-22T10:36:53.709Z,3080
2017-07-22T10:37:54.956Z,1020
2017-07-22T10:38:56.205Z,965
2017-07-22T10:39:57.464Z,2735
2017-07-22T10:40:58.737Z,2550
2017-07-22T10:41:59.986Z,1285
2017-07-22T10:43:01.250Z,680
2017-07-22T10:44:02.510Z,640
2017-07-22T10:45:03.749Z,640
2017-07-22T10:46:05.041Z,620
2017-07-22T10:47:06.289Z,695
2017-07-22T10:48:07.538Z,665
2017-07-22T10:49:08.852Z,625
2017-07-22T10:50:10.091Z,615
2017-07-22T10:51:11.422Z,610
2017-07-22T10:52:12.612Z,590
2017-07-22T10:53:13.906Z,685
2017-07-22T10:54:15.135Z,765
2017-07-22T10:55:16.392Z,705
2017-07-22T10:56:17.681Z,655
2017-07-22T10:57:18.936Z,635
2017-07-22T10:58:20.218Z,610
2017-07-22T10:59:21.561Z,595
2017-07-22T11:00:22.803Z,595
2017-07-22T11:01:24.097Z,565
2017-07-22T11:02:25.575Z,540
2017-07-22T11:03:26.827Z,520
2017-07-22T11:04:28.081Z,510
2017-07-22T11:05:29.356Z,490
2017-07-22T11:06:30.618Z,500
2017-07-22T11:07:31.950Z,505
2017-07-22T11:08:33.197Z,510
2017-07-22T11:09:34.450Z,505
2017-07-22T11:10:35.710Z,505
2017-07-22T11:11:37.071Z,500
2017-07-22T11:12:38.324Z,495
2017-07-22T11:13:39.576Z,505
2017-07-22T11:14:40.818Z,520
2017-07-22T11:15:42.067Z,555
2017-07-22T11:16:43.395Z,560
2017-07-22T11:17:44.651Z,540
2017-07-22T11:18:45.908Z,505
2017-07-22T11:19:47.158Z,480
2017-07-22T11:20:48.409Z,475
2017-07-22T11:21:49.658Z,475
2017-07-22T11:22:50.998Z,480
2017-07-22T11:23:52.240Z,485
2017-07-22T11:24:53.501Z,490
2017-07-22T11:25:54.760Z,495
2017-07-22T11:26:56.030Z,505
2017-07-22T11:27:57.317Z,500
2017-07-22T11:28:58.557Z,500
2017-07-22T11:29:59.994Z,490
2017-07-22T11:31:01.250Z,490
2017-07-22T11:32:02.503Z,495
2017-07-22T11:33:03.758Z,505
2017-07-22T11:34:05.128Z,500
2017-07-22T11:35:06.376Z,500
2017-07-22T11:36:07.637Z,500
2017-07-22T11:37:08.924Z,500
2017-07-22T11:38:10.173Z,515
2017-07-22T11:39:11.436Z,525
2017-07-22T11:40:12.681Z,525
2017-07-22T11:41:13.938Z,520
2017-07-22T11:42:15.251Z,500
2017-07-22T11:43:16.498Z,490
2017-07-22T11:44:17.757Z,480
2017-07-22T11:45:19.005Z,475
2017-07-22T11:46:20.260Z,475
2017-07-22T11:47:21.608Z,500
2017-07-22T11:48:22.873Z,510
2017-07-22T11:49:24.164Z,510
2017-07-22T11:50:25.503Z,515
2017-07-22T11:51:26.748Z,520
2017-07-22T11:52:27.997Z,515
2017-07-22T11:53:29.407Z,500
2017-07-22T11:54:30.639Z,505
2017-07-22T11:55:31.907Z,515
2017-07-22T11:56:33.156Z,515
2017-07-22T11:57:34.401Z,505
2017-07-22T11:58:35.763Z,520
2017-07-22T11:59:37.118Z,515
2017-07-22T12:00:38.401Z,495
2017-07-22T12:01:39.654Z,490
2017-07-22T12:02:40.907Z,485
2017-07-22T12:03:42.157Z,465
2017-07-22T12:04:43.438Z,455
2017-07-22T12:05:44.698Z,450
2017-07-22T12:06:46.021Z,460
2017-07-22T12:07:47.318Z,465
2017-07-22T12:08:48.553Z,475
2017-07-22T12:09:49.801Z,475
2017-07-22T12:10:51.134Z,475
2017-07-22T12:11:52.481Z,470
2017-07-22T12:12:53.786Z,450
2017-07-22T12:13:55.015Z,455
2017-07-22T12:14:56.268Z,455
2017-07-22T12:15:57.609Z,460
2017-07-22T12:16:58.872Z,465
2017-07-22T12:18:00.190Z,455
2017-07-22T12:19:01.430Z,430
2017-07-22T12:20:02.693Z,410
2017-07-22T12:21:03.946Z,385
2017-07-22T12:22:05.193Z,380
2017-07-22T12:23:06.436Z,385
2017-07-22T12:24:07.702Z,400
2017-07-22T12:25:08.942Z,400
2017-07-22T12:26:10.193Z,395
2017-07-22T12:27:11.517Z,385
2017-07-22T12:28:12.703Z,375
2017-07-22T12:29:13.970Z,375
2017-07-22T12:30:15.419Z,370
2017-07-22T12:31:16.680Z,370
2017-07-22T12:32:17.918Z,370
2017-07-22T12:33:19.168Z,365
2017-07-22T12:34:20.466Z,365
2017-07-22T12:35:21.807Z,365
2017-07-22T12:36:23.035Z,365
2017-07-22T12:37:24.301Z,365
2017-07-22T12:38:25.531Z,370
2017-07-22T12:39:26.795Z,370
2017-07-22T12:40:28.016Z,370
2017-07-22T12:41:29.339Z,365
2017-07-22T12:42:30.586Z,365
2017-07-22T12:43:31.858Z,360
2017-07-22T12:44:33.084Z,360
2017-07-22T12:45:34.339Z,365
2017-07-22T12:46:35.584Z,360
2017-07-22T12:47:36.889Z,335
2017-07-22T12:48:38.076Z,350
2017-07-22T12:49:39.359Z,360
2017-07-22T12:50:40.614Z,365
2017-07-22T12:51:41.875Z,350
2017-07-22T12:52:43.235Z,360
2017-07-22T12:53:44.383Z,360
2017-07-22T12:54:45.742Z,365
2017-07-22T12:55:46.990Z,360
2017-07-22T12:56:48.230Z,345
2017-07-22T12:57:49.477Z,340
2017-07-22T12:58:50.712Z,335
2017-07-22T12:59:51.985Z,335
2017-07-22T13:00:53.248Z,335
2017-07-22T13:01:54.494Z,335
2017-07-22T13:02:55.748Z,335
2017-07-22T13:03:56.990Z,340
2017-07-22T13:04:58.242Z,350
2017-07-22T13:05:59.581Z,360
2017-07-22T13:07:00.847Z,350
2017-07-22T13:08:02.088Z,345
2017-07-22T13:09:03.348Z,355
2017-07-22T13:10:04.595Z,370
2017-07-22T13:11:05.853Z,385
2017-07-22T13:12:07.116Z,400
2017-07-22T13:13:08.380Z,460
2017-07-22T13:14:09.714Z,510
2017-07-22T13:15:10.965Z,500
2017-07-22T13:16:12.222Z,470
2017-07-22T13:17:13.513Z,455
2017-07-22T13:18:14.765Z,480
2017-07-22T13:19:16.021Z,480
2017-07-22T13:20:17.512Z,480
2017-07-22T13:21:18.737Z,490
2017-07-22T13:22:19.993Z,500
2017-07-22T13:23:21.292Z,485
2017-07-22T13:24:22.476Z,460
2017-07-22T13:25:23.739Z,455
2017-07-22T13:26:25.006Z,445
2017-07-22T13:27:26.253Z,430
2017-07-22T13:28:27.501Z,430
2017-07-22T13:29:28.757Z,410
2017-07-22T13:30:30.000Z,420
2017-07-22T13:31:31.334Z,420
2017-07-22T13:32:32.585Z,410
2017-07-22T13:33:33.840Z,400
2017-07-22T13:34:35.109Z,405
2017-07-22T13:35:36.341Z,400
2017-07-22T13:36:37.611Z,410
2017-07-22T13:37:38.904Z,405
2017-07-22T13:38:40.116Z,380
2017-07-22T13:39:41.376Z,395
2017-07-22T13:40:42.613Z,420
2017-07-22T13:41:43.857Z,420
2017-07-22T13:42:45.295Z,405
2017-07-22T13:43:46.533Z,385
2017-07-22T13:44:47.831Z,365
2017-07-22T13:45:49.109Z,360
2017-07-22T13:46:50.365Z,370
2017-07-22T13:47:51.728Z,385
2017-07-22T13:48:52.971Z,425
2017-07-22T13:49:54.269Z,460
2017-07-22T13:50:55.573Z,485
2017-07-22T13:51:56.823Z,485
2017-07-22T13:52:58.096Z,475
2017-07-22T13:53:59.497Z,470
2017-07-22T13:55:00.754Z,475
2017-07-22T13:56:02.022Z,480
2017-07-22T13:57:03.387Z,485
2017-07-22T13:58:04.680Z,470
2017-07-22T13:59:05.909Z,485
2017-07-22T14:00:07.302Z,525
2017-07-22T14:01:08.541Z,530
2017-07-22T14:02:09.802Z,530
2017-07-22T14:03:11.111Z,505
2017-07-22T14:04:12.372Z,470
2017-07-22T14:05:13.689Z,445
2017-07-22T14:06:14.968Z,420
2017-07-22T14:07:16.284Z,405
2017-07-22T14:08:17.556Z,395
2017-07-22T14:09:18.843Z,390
2017-07-22T14:10:20.092Z,385
2017-07-22T14:11:21.346Z,355
2017-07-22T14:12:22.610Z,350
2017-07-22T14:13:24.069Z,350
2017-07-22T14:14:25.326Z,345
2017-07-22T14:15:26.575Z,340
2017-07-22T14:16:27.836Z,320